Time;durP1;ratioP1;P1;durP2;ratioP2;P2;SDS_P1;SDS_P2;PMS_P1;PMS_P2;Temp;Humidity;BMP_temperature;BMP_pressure;BME280_temperature;BME280_humidity;BME280_pressure;Samples;Min_cycle;Max_cycle;Signal;HPM_P1;HPM_P2
2022/08/20 00:08:28;;;;;;;;;;;;;;;;;;21083288;28;19932;-55
2022/08/20 00:18:29;;;;;;;;;;;;;;;;;;21083238;28;19928;-54
2022/08/20 00:28:31;;;;;;;;;;;;;;;;;;21083037;28;20023;-53
2022/08/20 00:38:33;;;;;;;;;;;;;;;;;;21078832;28;20015;-55
2022/08/20 00:48:34;;;;;;;;;;;;;;;;;;21078740;28;20322;-55
2022/08/20 00:58:36;;;;;;;;;;;;;;;;;;21078251;28;19925;-55
2022/08/20 01:08:38;;;;;;;;;;;;;;;;;;21078367;28;19924;-54
2022/08/20 01:18:40;;;;;;;;;;;;;;;;;;21077030;28;19925;-55
2022/08/20 01:28:46;;;;;;;;;;;;;;;;;;21086862;28;19924;-55
2022/08/20 01:38:58;;;;;;;;;;;;;;;;;;21092326;28;19960;-54
2022/08/20 01:49:06;;;;;;;;;;;;;;;;;;21091447;28;20379;-54
2022/08/20 01:59:13;;;;;;;;;;;;;;;;;;21091296;28;19924;-54
2022/08/20 02:09:19;;;;;;;;;;;;;;;;;;21089155;28;19928;-55
2022/08/20 02:19:25;;;;;;;;;;;;;;;;;;21089263;28;20002;-55
2022/08/20 02:29:32;;;;;;;;;;;;;;;;;;21087777;28;20321;-55
2022/08/20 02:39:35;;;;;;;;;;;;;;;;;;21086713;28;19977;-55
2022/08/20 02:49:41;;;;;;;;;;;;;;;;;;21087697;28;19971;-54
2022/08/20 02:59:45;;;;;;;;;;;;;;;;;;21084975;28;20399;-55
2022/08/20 03:09:49;;;;;;;;;;;;;;;;;;21084293;28;19969;-54
2022/08/20 03:19:54;;;;;;;;;;;;;;;;;;21084210;28;19977;-54
2022/08/20 03:29:57;;;;;;;;;;;;;;;;;;21081127;28;19935;-54
2022/08/20 03:39:59;;;;;;;;;;;;;;;;;;21081877;28;19924;-55
2022/08/20 03:50:01;;;;;;;;;;;;;;;;;;21081191;28;19938;-54
2022/08/20 04:00:05;;;;;;;;;;;;;;;;;;21083146;28;19924;-54
2022/08/20 04:10:10;;;;;;;;;;;;;;;;;;21085907;28;19928;-54
2022/08/20 04:20:12;;;;;;;;;;;;;;;;;;21080829;28;19925;-54
2022/08/20 04:30:15;;;;;;;;;;;;;;;;;;21079179;28;19924;-54
2022/08/20 04:50:38;;;;;;;;;;;;;;;;;;21078950;28;19924;-55
2022/08/20 05:00:40;;;;;;;;;;;;;;;;;;21087494;28;19928;-56
2022/08/20 05:10:42;;;;;;;;;;;;;;;;;;21098588;28;19950;-54
2022/08/20 05:20:44;;;;;;;;;;;;;;;;;;21101612;28;20025;-55
2022/08/20 05:30:47;;;;;;;;;;;;;;;;;;21094902;28;19931;-56
2022/08/20 05:40:48;;;;;;;;;;;;;;;;;;21093563;28;19927;-54
2022/08/20 05:50:50;;;;;;;;;;;;;;;;;;21092864;28;20295;-54
2022/08/20 06:00:52;;;;;;;;;;;;;;;;;;21093787;28;20006;-55
2022/08/20 06:10:54;;;;;;;;;;;;;;;;;;21088710;28;19928;-54
2022/08/20 06:20:56;;;;;;;;;;;;;;;;;;21089415;28;20264;-54
2022/08/20 06:30:59;;;;;;;;;;;;;;;;;;21088954;28;19924;-55
2022/08/20 06:41:01;;;;;;;;;;;;;;;;;;21088193;28;19924;-54
2022/08/20 06:51:05;;;;;;;;;;;;;;;;;;21087280;28;19924;-54
2022/08/20 07:01:07;;;;;;;;;;;;;;;;;;21085652;28;19924;-54
2022/08/20 07:11:09;;;;;;;;;;;;;;;;;;21085125;28;20023;-55
2022/08/20 07:21:11;;;;;;;;;;;;;;;;;;21083549;28;19930;-55
2022/08/20 07:41:34;;;;;;;;;;;;;;;;;;21082861;28;19924;-55
2022/08/20 07:51:36;;;;;;;;;;;;;;;;;;21081508;28;20372;-55
2022/08/20 08:01:38;;;;;;;;;;;;;;;;;;21081399;28;20034;-56
2022/08/20 08:11:40;;;;;;;;;;;;;;;;;;21081510;28;19951;-55
2022/08/20 08:21:43;;;;;;;;;;;;;;;;;;21080513;28;19924;-56
2022/08/20 08:31:45;;;;;;;;;;;;;;;;;;21080715;28;20030;-55
2022/08/20 08:41:48;;;;;;;;;;;;;;;;;;21078004;28;19924;-57
2022/08/20 08:51:50;;;;;;;;;;;;;;;;;;21078659;28;20285;-55
2022/08/20 09:01:52;;;;;;;;;;;;;;;;;;21077411;28;19977;-54
2022/08/20 09:11:54;;;;;;;;;;;;;;;;;;21078992;28;19931;-55
2022/08/20 09:21:56;;;;;;;;;;;;;;;;;;21076297;28;20021;-56
2022/08/20 09:31:58;;;;;;;;;;;;;;;;;;21076893;28;19924;-57
2022/08/20 09:42:00;;;;;;;;;;;;;;;;;;21076004;28;19928;-55
2022/08/20 09:52:02;;;;;;;;;;;;;;;;;;21088014;28;19953;-57
2022/08/20 10:02:04;;;;;;;;;;;;;;;;;;21090148;28;19924;-56
2022/08/20 10:12:05;;;;;;;;;;;;;;;;;;21090008;28;20380;-55
2022/08/20 10:22:08;;;;;;;;;;;;;;;;;;21088495;28;19977;-55
2022/08/20 10:32:11;;;;;;;;;;;;;;;;;;21089224;28;20015;-55
2022/08/20 10:42:13;;;;;;;;;;;;;;;;;;21094413;28;19924;-54
2022/08/20 10:52:15;;;;;;;;;;;;;;;;;;21090471;28;19924;-55
2022/08/20 11:02:16;;;;;;;;;;;;;;;;;;21084535;28;19931;-54
2022/08/20 11:12:18;;;;;;;;;;;;;;;;;;21084740;28;19931;-54
2022/08/20 11:22:20;;;;;;;;;;;;;;;;;;21083499;28;19932;-54
2022/08/20 11:32:22;;;;;;;;;;;;;;;;;;21083192;28;19924;-56
2022/08/20 11:42:24;;;;;;;;;;;;;;;;;;21083526;28;20345;-55
2022/08/20 11:52:26;;;;;;;;;;;;;;;;;;21081536;28;20323;-55
2022/08/20 12:02:28;;;;;;;;;;;;;;;;;;21080775;28;20340;-55
2022/08/20 12:12:32;;;;;;;;;;;;;;;;;;21077853;28;22401;-55
2022/08/20 12:22:34;;;;;;;;;;;;;;;;;;21080877;28;19966;-58
2022/08/20 12:32:36;;;;;;;;;;;;;;;;;;21082715;28;20072;-58
2022/08/20 12:42:38;;;;;;;;;;;;;;;;;;21079118;28;19928;-55
2022/08/20 12:52:39;;;;;;;;;;;;;;;;;;21078803;28;19924;-54
2022/08/20 13:02:41;;;;;;;;;;;;;;;;;;21077739;28;19978;-57
2022/08/20 13:12:43;;;;;;;;;;;;;;;;;;21077241;28;20392;-56
2022/08/20 13:22:45;;;;;;;;;;;;;;;;;;21083655;28;19924;-58
2022/08/20 13:32:48;;;;;;;;;;;;;;;;;;21092651;28;19924;-57
2022/08/20 13:42:50;;;;;;;;;;;;;;;;;;21093751;28;19982;-55
2022/08/20 13:52:52;;;;;;;;;;;;;;;;;;21091195;28;19924;-55
2022/08/20 14:02:54;;;;;;;;;;;;;;;;;;21091580;28;19924;-56
2022/08/20 14:12:56;;;;;;;;;;;;;;;;;;21089979;28;19924;-56
2022/08/20 14:22:58;;;;;;;;;;;;;;;;;;21088837;28;19924;-57
2022/08/20 14:33:00;;;;;;;;;;;;;;;;;;21087890;28;19924;-54
2022/08/20 14:43:02;;;;;;;;;;;;;;;;;;21088142;28;19924;-56
2022/08/20 14:53:04;;;;;;;;;;;;;;;;;;21087259;28;19979;-54
2022/08/20 15:03:06;;;;;;;;;;;;;;;;;;21085766;28;20291;-56
2022/08/20 15:13:08;;;;;;;;;;;;;;;;;;21085526;28;19931;-55
2022/08/20 15:23:10;;;;;;;;;;;;;;;;;;21090226;28;19950;-57
2022/08/20 15:33:12;;;;;;;;;;;;;;;;;;21085774;28;19977;-56
2022/08/20 15:43:13;;;;;;;;;;;;;;;;;;21082980;28;20054;-56
2022/08/20 15:53:15;;;;;;;;;;;;;;;;;;21082539;28;19947;-56
2022/08/20 16:03:17;;;;;;;;;;;;;;;;;;21081421;28;19930;-55
2022/08/20 16:13:19;;;;;;;;;;;;;;;;;;21080435;28;19924;-56
2022/08/20 16:23:21;;;;;;;;;;;;;;;;;;21079100;28;19935;-56
2022/08/20 16:33:23;;;;;;;;;;;;;;;;;;21080133;28;19925;-56
2022/08/20 16:43:24;;;;;;;;;;;;;;;;;;21081147;28;19931;-57
2022/08/20 16:53:26;;;;;;;;;;;;;;;;;;21080233;28;19971;-55
2022/08/20 17:03:28;;;;;;;;;;;;;;;;;;21094352;28;19978;-58
2022/08/20 17:13:30;;;;;;;;;;;;;;;;;;21095835;28;19924;-56
2022/08/20 17:23:32;;;;;;;;;;;;;;;;;;21096943;28;20418;-56
2022/08/20 17:33:33;;;;;;;;;;;;;;;;;;21094352;28;19924;-56
2022/08/20 17:43:35;;;;;;;;;;;;;;;;;;21092526;28;19928;-54
2022/08/20 17:53:37;;;;;;;;;;;;;;;;;;21091748;28;19983;-54
2022/08/20 18:03:42;;;;;;;;;;;;;;;;;;21092069;28;19932;-56
2022/08/20 18:13:44;;;;;;;;;;;;;;;;;;21092673;28;20027;-56
2022/08/20 18:23:46;;;;;;;;;;;;;;;;;;21093034;28;19924;-56
2022/08/20 18:33:48;;;;;;;;;;;;;;;;;;21093275;28;19924;-57
2022/08/20 18:43:49;;;;;;;;;;;;;;;;;;21089462;28;19928;-55
2022/08/20 18:53:51;;;;;;;;;;;;;;;;;;21090799;28;19924;-55
2022/08/20 19:03:53;;;;;;;;;;;;;;;;;;21091626;28;20073;-58
2022/08/20 19:13:55;;;;;;;;;;;;;;;;;;21087275;28;20295;-59
2022/08/20 19:23:57;;;;;;;;;;;;;;;;;;21084252;28;20399;-55
2022/08/20 19:33:59;;;;;;;;;;;;;;;;;;21083128;28;19970;-60
2022/08/20 19:44:00;;;;;;;;;;;;;;;;;;21082720;28;19924;-60
2022/08/20 19:54:02;;;;;;;;;;;;;;;;;;21081937;28;19924;-59
2022/08/20 20:04:04;;;;;;;;;;;;;;;;;;21087785;28;19935;-56
2022/08/20 20:14:06;;;;;;;;;;;;;;;;;;21080743;28;19928;-57
2022/08/20 20:24:08;;;;;;;;;;;;;;;;;;21079279;28;20030;-56
2022/08/20 20:34:10;;;;;;;;;;;;;;;;;;21078193;28;19924;-56
2022/08/20 20:44:11;;;;;;;;;;;;;;;;;;21079674;28;19928;-56
2022/08/20 20:54:13;;;;;;;;;;;;;;;;;;21078580;28;19924;-60
2022/08/20 21:04:15;;;;;;;;;;;;;;;;;;21077801;28;19924;-57
2022/08/20 21:14:17;;;;;;;;;;;;;;;;;;21079534;28;19928;-60
2022/08/20 21:24:19;;;;;;;;;;;;;;;;;;21076761;28;19964;-57
2022/08/20 21:34:20;;;;;;;;;;;;;;;;;;21077459;28;19931;-54
2022/08/20 21:44:22;;;;;;;;;;;;;;;;;;21084192;28;19924;-54
2022/08/20 21:54:24;;;;;;;;;;;;;;;;;;21091570;28;20032;-55
2022/08/20 22:04:26;;;;;;;;;;;;;;;;;;21090099;28;19931;-57
2022/08/20 22:14:28;;;;;;;;;;;;;;;;;;21089926;28;19924;-55
2022/08/20 22:24:30;;;;;;;;;;;;;;;;;;21089270;28;19924;-55
2022/08/20 22:34:32;;;;;;;;;;;;;;;;;;21097035;28;19931;-58
2022/08/20 22:44:33;;;;;;;;;;;;;;;;;;21088198;28;19924;-57
2022/08/20 22:54:35;;;;;;;;;;;;;;;;;;21085785;28;19924;-62
2022/08/20 23:04:37;;;;;;;;;;;;;;;;;;21086404;28;19924;-66
2022/08/20 23:14:39;;;;;;;;;;;;;;;;;;21086389;28;19928;-59
2022/08/20 23:24:41;;;;;;;;;;;;;;;;;;21085520;28;19951;-64
2022/08/20 23:34:43;;;;;;;;;;;;;;;;;;21084611;28;19930;-61
2022/08/20 23:44:45;;;;;;;;;;;;;;;;;;21083964;28;19931;-63
2022/08/20 23:54:47;;;;;;;;;;;;;;;;;;21081562;28;19931;-62
